sensor_id;sensor_type;location;lat;lon;timestamp;P1;durP1;ratioP1;P2;durP2;ratioP2
64653;SDS011;51065;48.884;12.598;2024-01-30T00:01:54;15.18;;;7.05;;
64653;SDS011;51065;48.884;12.598;2024-01-30T00:04:20;16.58;;;6.55;;
64653;SDS011;51065;48.884;12.598;2024-01-30T00:06:46;16.05;;;6.97;;
64653;SDS011;51065;48.884;12.598;2024-01-30T00:09:11;17.27;;;6.57;;
64653;SDS011;51065;48.884;12.598;2024-01-30T00:11:37;14.43;;;6.72;;
64653;SDS011;51065;48.884;12.598;2024-01-30T00:14:03;13.95;;;6.25;;
64653;SDS011;51065;48.884;12.598;2024-01-30T00:16:29;16.30;;;6.53;;
64653;SDS011;51065;48.884;12.598;2024-01-30T00:18:55;13.57;;;6.15;;
64653;SDS011;51065;48.884;12.598;2024-01-30T00:21:21;16.52;;;7.03;;
64653;SDS011;51065;48.884;12.598;2024-01-30T00:23:47;16.40;;;6.05;;
64653;SDS011;51065;48.884;12.598;2024-01-30T00:26:13;16.40;;;6.50;;
64653;SDS011;51065;48.884;12.598;2024-01-30T00:28:40;19.10;;;7.35;;
64653;SDS011;51065;48.884;12.598;2024-01-30T00:31:06;14.98;;;5.72;;
64653;SDS011;51065;48.884;12.598;2024-01-30T00:33:32;14.30;;;6.07;;
64653;SDS011;51065;48.884;12.598;2024-01-30T00:35:58;17.25;;;5.63;;
64653;SDS011;51065;48.884;12.598;2024-01-30T00:38:23;16.27;;;6.75;;
64653;SDS011;51065;48.884;12.598;2024-01-30T00:40:49;15.38;;;7.13;;
64653;SDS011;51065;48.884;12.598;2024-01-30T00:43:15;17.30;;;6.90;;
64653;SDS011;51065;48.884;12.598;2024-01-30T00:45:41;13.10;;;6.13;;
64653;SDS011;51065;48.884;12.598;2024-01-30T00:48:09;17.10;;;6.15;;
64653;SDS011;51065;48.884;12.598;2024-01-30T00:50:35;11.82;;;4.78;;
64653;SDS011;51065;48.884;12.598;2024-01-30T00:53:00;12.48;;;5.18;;
64653;SDS011;51065;48.884;12.598;2024-01-30T00:55:26;14.98;;;6.40;;
64653;SDS011;51065;48.884;12.598;2024-01-30T00:57:51;15.02;;;5.75;;
64653;SDS011;51065;48.884;12.598;2024-01-30T01:00:17;12.65;;;5.32;;
64653;SDS011;51065;48.884;12.598;2024-01-30T01:02:43;12.75;;;5.60;;
64653;SDS011;51065;48.884;12.598;2024-01-30T01:05:09;12.35;;;5.90;;
64653;SDS011;51065;48.884;12.598;2024-01-30T01:07:35;11.50;;;5.38;;
64653;SDS011;51065;48.884;12.598;2024-01-30T01:10:01;13.75;;;5.53;;
64653;SDS011;51065;48.884;12.598;2024-01-30T01:12:27;11.77;;;5.47;;
64653;SDS011;51065;48.884;12.598;2024-01-30T01:14:53;16.35;;;6.28;;
64653;SDS011;51065;48.884;12.598;2024-01-30T01:17:18;16.40;;;6.45;;
64653;SDS011;51065;48.884;12.598;2024-01-30T01:19:44;13.80;;;6.15;;
64653;SDS011;51065;48.884;12.598;2024-01-30T01:22:10;15.63;;;6.18;;
64653;SDS011;51065;48.884;12.598;2024-01-30T01:24:35;14.40;;;5.97;;
64653;SDS011;51065;48.884;12.598;2024-01-30T01:27:01;14.10;;;6.03;;
64653;SDS011;51065;48.884;12.598;2024-01-30T01:29:27;10.13;;;5.18;;
64653;SDS011;51065;48.884;12.598;2024-01-30T01:31:56;11.35;;;5.40;;
64653;SDS011;51065;48.884;12.598;2024-01-30T01:34:22;13.60;;;5.68;;
64653;SDS011;51065;48.884;12.598;2024-01-30T01:36:51;12.15;;;5.63;;
64653;SDS011;51065;48.884;12.598;2024-01-30T01:39:20;12.88;;;5.57;;
64653;SDS011;51065;48.884;12.598;2024-01-30T01:41:47;15.60;;;5.93;;
64653;SDS011;51065;48.884;12.598;2024-01-30T01:44:13;11.70;;;6.00;;
64653;SDS011;51065;48.884;12.598;2024-01-30T01:46:39;16.48;;;6.40;;
64653;SDS011;51065;48.884;12.598;2024-01-30T01:49:05;12.57;;;5.82;;
64653;SDS011;51065;48.884;12.598;2024-01-30T01:51:33;13.73;;;6.30;;
64653;SDS011;51065;48.884;12.598;2024-01-30T01:54:02;13.63;;;5.38;;
64653;SDS011;51065;48.884;12.598;2024-01-30T01:56:29;12.18;;;5.45;;
64653;SDS011;51065;48.884;12.598;2024-01-30T01:58:55;10.52;;;5.18;;
64653;SDS011;51065;48.884;12.598;2024-01-30T02:01:29;13.75;;;6.10;;
64653;SDS011;51065;48.884;12.598;2024-01-30T02:03:57;13.80;;;5.90;;
64653;SDS011;51065;48.884;12.598;2024-01-30T02:06:23;14.93;;;5.72;;
64653;SDS011;51065;48.884;12.598;2024-01-30T02:08:49;14.77;;;6.47;;
64653;SDS011;51065;48.884;12.598;2024-01-30T02:11:15;15.93;;;6.43;;
64653;SDS011;51065;48.884;12.598;2024-01-30T02:13:41;14.48;;;5.88;;
64653;SDS011;51065;48.884;12.598;2024-01-30T02:16:07;11.38;;;4.63;;
64653;SDS011;51065;48.884;12.598;2024-01-30T02:18:33;12.13;;;5.40;;
64653;SDS011;51065;48.884;12.598;2024-01-30T02:20:58;18.50;;;6.68;;
64653;SDS011;51065;48.884;12.598;2024-01-30T02:23:28;12.02;;;5.20;;
64653;SDS011;51065;48.884;12.598;2024-01-30T02:25:57;16.42;;;6.18;;
64653;SDS011;51065;48.884;12.598;2024-01-30T02:28:23;10.77;;;4.82;;
64653;SDS011;51065;48.884;12.598;2024-01-30T02:30:49;16.48;;;6.70;;
64653;SDS011;51065;48.884;12.598;2024-01-30T02:33:14;14.60;;;5.05;;
64653;SDS011;51065;48.884;12.598;2024-01-30T02:35:40;12.43;;;5.45;;
64653;SDS011;51065;48.884;12.598;2024-01-30T02:38:06;11.07;;;5.85;;
64653;SDS011;51065;48.884;12.598;2024-01-30T02:40:31;10.77;;;4.85;;
64653;SDS011;51065;48.884;12.598;2024-01-30T02:43:01;12.40;;;5.32;;
64653;SDS011;51065;48.884;12.598;2024-01-30T02:45:27;15.57;;;6.38;;
64653;SDS011;51065;48.884;12.598;2024-01-30T02:47:53;13.20;;;5.40;;
64653;SDS011;51065;48.884;12.598;2024-01-30T02:50:18;13.23;;;5.32;;
64653;SDS011;51065;48.884;12.598;2024-01-30T02:52:44;16.38;;;5.88;;
64653;SDS011;51065;48.884;12.598;2024-01-30T02:55:10;11.88;;;5.45;;
64653;SDS011;51065;48.884;12.598;2024-01-30T02:57:36;14.45;;;5.93;;
64653;SDS011;51065;48.884;12.598;2024-01-30T03:00:02;12.35;;;5.65;;
64653;SDS011;51065;48.884;12.598;2024-01-30T03:02:29;15.07;;;6.30;;
64653;SDS011;51065;48.884;12.598;2024-01-30T03:04:54;10.32;;;5.30;;
64653;SDS011;51065;48.884;12.598;2024-01-30T03:07:20;12.85;;;5.35;;
64653;SDS011;51065;48.884;12.598;2024-01-30T03:09:45;11.55;;;5.32;;
64653;SDS011;51065;48.884;12.598;2024-01-30T03:12:11;12.90;;;5.15;;
64653;SDS011;51065;48.884;12.598;2024-01-30T03:14:37;11.38;;;5.28;;
64653;SDS011;51065;48.884;12.598;2024-01-30T03:17:02;10.18;;;4.82;;
64653;SDS011;51065;48.884;12.598;2024-01-30T03:19:28;11.73;;;5.40;;
64653;SDS011;51065;48.884;12.598;2024-01-30T03:21:54;17.08;;;6.07;;
64653;SDS011;51065;48.884;12.598;2024-01-30T03:24:19;10.07;;;5.13;;
64653;SDS011;51065;48.884;12.598;2024-01-30T03:26:45;11.35;;;4.78;;
64653;SDS011;51065;48.884;12.598;2024-01-30T03:29:11;17.13;;;6.38;;
64653;SDS011;51065;48.884;12.598;2024-01-30T03:31:36;11.77;;;5.18;;
64653;SDS011;51065;48.884;12.598;2024-01-30T03:34:03;15.00;;;5.70;;
64653;SDS011;51065;48.884;12.598;2024-01-30T03:36:29;12.13;;;5.90;;
64653;SDS011;51065;48.884;12.598;2024-01-30T03:38:57;12.43;;;5.45;;
64653;SDS011;51065;48.884;12.598;2024-01-30T03:41:23;11.93;;;4.95;;
64653;SDS011;51065;48.884;12.598;2024-01-30T03:43:49;13.15;;;5.07;;
64653;SDS011;51065;48.884;12.598;2024-01-30T03:46:15;13.90;;;5.60;;
64653;SDS011;51065;48.884;12.598;2024-01-30T03:48:41;12.70;;;5.50;;
64653;SDS011;51065;48.884;12.598;2024-01-30T03:51:07;11.05;;;4.90;;
64653;SDS011;51065;48.884;12.598;2024-01-30T03:53:33;13.82;;;6.18;;
64653;SDS011;51065;48.884;12.598;2024-01-30T03:55:58;13.52;;;6.15;;
64653;SDS011;51065;48.884;12.598;2024-01-30T03:58:28;11.20;;;5.05;;
64653;SDS011;51065;48.884;12.598;2024-01-30T04:00:53;13.13;;;5.60;;
64653;SDS011;51065;48.884;12.598;2024-01-30T04:03:19;13.52;;;5.55;;
64653;SDS011;51065;48.884;12.598;2024-01-30T04:05:44;14.27;;;5.80;;
64653;SDS011;51065;48.884;12.598;2024-01-30T04:08:10;16.73;;;6.57;;
64653;SDS011;51065;48.884;12.598;2024-01-30T04:10:36;14.73;;;6.10;;
64653;SDS011;51065;48.884;12.598;2024-01-30T04:13:01;17.33;;;6.68;;
64653;SDS011;51065;48.884;12.598;2024-01-30T04:15:27;12.77;;;5.20;;
64653;SDS011;51065;48.884;12.598;2024-01-30T04:17:56;14.50;;;6.20;;
64653;SDS011;51065;48.884;12.598;2024-01-30T04:20:23;15.60;;;6.68;;
64653;SDS011;51065;48.884;12.598;2024-01-30T04:22:49;14.95;;;6.65;;
64653;SDS011;51065;48.884;12.598;2024-01-30T04:25:15;11.88;;;5.60;;
64653;SDS011;51065;48.884;12.598;2024-01-30T04:27:40;16.48;;;6.93;;
64653;SDS011;51065;48.884;12.598;2024-01-30T04:30:06;15.75;;;7.05;;
64653;SDS011;51065;48.884;12.598;2024-01-30T04:32:32;13.68;;;5.55;;
64653;SDS011;51065;48.884;12.598;2024-01-30T04:34:58;10.57;;;4.93;;
64653;SDS011;51065;48.884;12.598;2024-01-30T04:37:23;11.70;;;5.78;;
64653;SDS011;51065;48.884;12.598;2024-01-30T04:39:50;10.65;;;5.65;;
64653;SDS011;51065;48.884;12.598;2024-01-30T04:42:16;14.70;;;6.55;;
64653;SDS011;51065;48.884;12.598;2024-01-30T04:44:41;13.18;;;6.05;;
64653;SDS011;51065;48.884;12.598;2024-01-30T04:47:07;12.85;;;5.78;;
64653;SDS011;51065;48.884;12.598;2024-01-30T04:49:34;15.52;;;7.22;;
64653;SDS011;51065;48.884;12.598;2024-01-30T04:52:00;14.15;;;5.97;;
64653;SDS011;51065;48.884;12.598;2024-01-30T04:54:26;13.90;;;5.93;;
64653;SDS011;51065;48.884;12.598;2024-01-30T04:56:52;12.68;;;5.35;;
64653;SDS011;51065;48.884;12.598;2024-01-30T04:59:17;17.42;;;6.40;;
64653;SDS011;51065;48.884;12.598;2024-01-30T05:01:46;13.70;;;6.55;;
64653;SDS011;51065;48.884;12.598;2024-01-30T05:04:12;12.15;;;5.82;;
64653;SDS011;51065;48.884;12.598;2024-01-30T05:06:37;15.57;;;6.28;;
64653;SDS011;51065;48.884;12.598;2024-01-30T05:09:03;13.07;;;5.63;;
64653;SDS011;51065;48.884;12.598;2024-01-30T05:11:29;15.38;;;5.97;;
64653;SDS011;51065;48.884;12.598;2024-01-30T05:13:55;14.88;;;5.47;;
64653;SDS011;51065;48.884;12.598;2024-01-30T05:16:21;13.75;;;6.38;;
64653;SDS011;51065;48.884;12.598;2024-01-30T05:18:47;15.43;;;5.55;;
64653;SDS011;51065;48.884;12.598;2024-01-30T05:21:12;15.35;;;6.35;;
64653;SDS011;51065;48.884;12.598;2024-01-30T05:23:38;12.20;;;5.57;;
64653;SDS011;51065;48.884;12.598;2024-01-30T05:26:05;12.65;;;4.88;;
64653;SDS011;51065;48.884;12.598;2024-01-30T05:28:30;13.70;;;5.32;;
64653;SDS011;51065;48.884;12.598;2024-01-30T05:30:57;14.40;;;6.32;;
64653;SDS011;51065;48.884;12.598;2024-01-30T05:33:22;12.18;;;5.78;;
64653;SDS011;51065;48.884;12.598;2024-01-30T05:35:48;14.90;;;5.55;;
64653;SDS011;51065;48.884;12.598;2024-01-30T05:38:13;12.65;;;5.72;;
64653;SDS011;51065;48.884;12.598;2024-01-30T05:40:40;13.82;;;6.38;;
64653;SDS011;51065;48.884;12.598;2024-01-30T05:43:06;13.85;;;5.78;;
64653;SDS011;51065;48.884;12.598;2024-01-30T05:45:32;15.25;;;7.30;;
64653;SDS011;51065;48.884;12.598;2024-01-30T05:47:59;16.52;;;6.68;;
64653;SDS011;51065;48.884;12.598;2024-01-30T05:50:25;15.55;;;6.28;;
64653;SDS011;51065;48.884;12.598;2024-01-30T05:52:51;10.10;;;5.40;;
64653;SDS011;51065;48.884;12.598;2024-01-30T05:55:16;13.35;;;6.22;;
64653;SDS011;51065;48.884;12.598;2024-01-30T05:57:42;15.20;;;6.55;;
64653;SDS011;51065;48.884;12.598;2024-01-30T06:00:08;13.65;;;5.93;;
64653;SDS011;51065;48.884;12.598;2024-01-30T06:02:33;15.95;;;6.30;;
64653;SDS011;51065;48.884;12.598;2024-01-30T06:05:00;16.30;;;6.97;;
64653;SDS011;51065;48.884;12.598;2024-01-30T06:07:25;12.73;;;5.78;;
64653;SDS011;51065;48.884;12.598;2024-01-30T06:09:51;16.10;;;6.80;;
64653;SDS011;51065;48.884;12.598;2024-01-30T06:12:16;14.60;;;6.00;;
64653;SDS011;51065;48.884;12.598;2024-01-30T06:14:42;16.00;;;6.97;;
64653;SDS011;51065;48.884;12.598;2024-01-30T06:17:08;13.18;;;5.43;;
64653;SDS011;51065;48.884;12.598;2024-01-30T06:19:34;12.45;;;5.60;;
64653;SDS011;51065;48.884;12.598;2024-01-30T06:21:59;12.32;;;5.60;;
64653;SDS011;51065;48.884;12.598;2024-01-30T06:24:25;14.40;;;6.65;;
64653;SDS011;51065;48.884;12.598;2024-01-30T06:26:52;14.35;;;6.07;;
64653;SDS011;51065;48.884;12.598;2024-01-30T06:29:18;15.85;;;6.40;;
64653;SDS011;51065;48.884;12.598;2024-01-30T06:31:43;18.90;;;6.90;;
64653;SDS011;51065;48.884;12.598;2024-01-30T06:34:09;13.13;;;6.20;;
64653;SDS011;51065;48.884;12.598;2024-01-30T06:36:36;16.45;;;6.45;;
64653;SDS011;51065;48.884;12.598;2024-01-30T06:39:02;14.98;;;6.00;;
64653;SDS011;51065;48.884;12.598;2024-01-30T06:41:28;17.42;;;7.75;;
64653;SDS011;51065;48.884;12.598;2024-01-30T06:43:55;18.08;;;8.88;;
64653;SDS011;51065;48.884;12.598;2024-01-30T06:46:21;18.15;;;8.57;;
64653;SDS011;51065;48.884;12.598;2024-01-30T06:48:46;17.63;;;8.13;;
64653;SDS011;51065;48.884;12.598;2024-01-30T06:51:12;15.93;;;7.53;;
64653;SDS011;51065;48.884;12.598;2024-01-30T06:53:38;21.90;;;9.35;;
64653;SDS011;51065;48.884;12.598;2024-01-30T06:56:03;18.95;;;8.35;;
64653;SDS011;51065;48.884;12.598;2024-01-30T06:58:30;20.77;;;8.88;;
64653;SDS011;51065;48.884;12.598;2024-01-30T07:00:55;19.40;;;9.27;;
64653;SDS011;51065;48.884;12.598;2024-01-30T07:03:21;19.60;;;9.20;;
64653;SDS011;51065;48.884;12.598;2024-01-30T07:05:47;16.77;;;8.13;;
64653;SDS011;51065;48.884;12.598;2024-01-30T07:08:13;17.65;;;8.98;;
64653;SDS011;51065;48.884;12.598;2024-01-30T07:10:42;16.88;;;8.50;;
64653;SDS011;51065;48.884;12.598;2024-01-30T07:13:08;14.55;;;7.60;;
64653;SDS011;51065;48.884;12.598;2024-01-30T07:15:35;18.48;;;7.90;;
64653;SDS011;51065;48.884;12.598;2024-01-30T07:18:01;16.75;;;7.75;;
64653;SDS011;51065;48.884;12.598;2024-01-30T07:20:27;15.85;;;7.65;;
64653;SDS011;51065;48.884;12.598;2024-01-30T07:22:55;16.33;;;8.02;;
64653;SDS011;51065;48.884;12.598;2024-01-30T07:25:20;18.73;;;8.30;;
64653;SDS011;51065;48.884;12.598;2024-01-30T07:27:46;20.65;;;8.70;;
64653;SDS011;51065;48.884;12.598;2024-01-30T07:30:12;21.88;;;9.20;;
64653;SDS011;51065;48.884;12.598;2024-01-30T07:32:38;19.48;;;9.25;;
64653;SDS011;51065;48.884;12.598;2024-01-30T07:35:03;19.73;;;9.05;;
64653;SDS011;51065;48.884;12.598;2024-01-30T07:37:29;20.20;;;9.70;;
64653;SDS011;51065;48.884;12.598;2024-01-30T07:39:55;20.15;;;8.35;;
64653;SDS011;51065;48.884;12.598;2024-01-30T07:42:21;17.65;;;8.00;;
64653;SDS011;51065;48.884;12.598;2024-01-30T07:44:46;20.38;;;9.60;;
64653;SDS011;51065;48.884;12.598;2024-01-30T07:47:12;20.98;;;10.25;;
64653;SDS011;51065;48.884;12.598;2024-01-30T07:49:38;21.30;;;9.75;;
64653;SDS011;51065;48.884;12.598;2024-01-30T07:52:03;18.83;;;8.77;;
64653;SDS011;51065;48.884;12.598;2024-01-30T07:54:30;19.52;;;9.15;;
64653;SDS011;51065;48.884;12.598;2024-01-30T07:56:58;19.05;;;8.77;;
64653;SDS011;51065;48.884;12.598;2024-01-30T07:59:25;22.45;;;9.10;;
64653;SDS011;51065;48.884;12.598;2024-01-30T08:01:50;15.88;;;7.70;;
64653;SDS011;51065;48.884;12.598;2024-01-30T08:04:16;19.95;;;8.63;;
64653;SDS011;51065;48.884;12.598;2024-01-30T08:06:42;20.05;;;8.57;;
64653;SDS011;51065;48.884;12.598;2024-01-30T08:09:08;20.55;;;8.50;;
64653;SDS011;51065;48.884;12.598;2024-01-30T08:11:33;20.80;;;9.30;;
64653;SDS011;51065;48.884;12.598;2024-01-30T08:13:59;19.67;;;9.57;;
64653;SDS011;51065;48.884;12.598;2024-01-30T08:16:25;19.25;;;8.90;;
64653;SDS011;51065;48.884;12.598;2024-01-30T08:18:50;19.83;;;9.18;;
64653;SDS011;51065;48.884;12.598;2024-01-30T08:21:18;23.00;;;10.10;;
64653;SDS011;51065;48.884;12.598;2024-01-30T08:23:44;19.40;;;9.55;;
64653;SDS011;51065;48.884;12.598;2024-01-30T08:26:10;18.70;;;8.85;;
64653;SDS011;51065;48.884;12.598;2024-01-30T08:28:35;23.23;;;9.82;;
64653;SDS011;51065;48.884;12.598;2024-01-30T08:31:01;19.40;;;10.30;;
64653;SDS011;51065;48.884;12.598;2024-01-30T08:33:27;19.58;;;10.15;;
64653;SDS011;51065;48.884;12.598;2024-01-30T08:35:52;21.20;;;9.65;;
64653;SDS011;51065;48.884;12.598;2024-01-30T08:38:18;20.10;;;9.75;;
64653;SDS011;51065;48.884;12.598;2024-01-30T08:40:44;17.95;;;8.23;;
64653;SDS011;51065;48.884;12.598;2024-01-30T08:43:10;19.20;;;8.68;;
64653;SDS011;51065;48.884;12.598;2024-01-30T08:45:35;21.92;;;9.07;;
64653;SDS011;51065;48.884;12.598;2024-01-30T08:48:01;21.15;;;9.27;;
64653;SDS011;51065;48.884;12.598;2024-01-30T08:50:26;20.08;;;10.35;;
64653;SDS011;51065;48.884;12.598;2024-01-30T08:52:52;18.30;;;8.48;;
64653;SDS011;51065;48.884;12.598;2024-01-30T08:55:18;18.73;;;9.50;;
64653;SDS011;51065;48.884;12.598;2024-01-30T08:57:44;21.83;;;8.55;;
64653;SDS011;51065;48.884;12.598;2024-01-30T09:00:09;17.83;;;7.78;;
64653;SDS011;51065;48.884;12.598;2024-01-30T09:02:36;18.55;;;8.48;;
64653;SDS011;51065;48.884;12.598;2024-01-30T09:05:01;19.33;;;9.48;;
64653;SDS011;51065;48.884;12.598;2024-01-30T09:07:27;19.98;;;10.38;;
64653;SDS011;51065;48.884;12.598;2024-01-30T09:09:53;19.35;;;8.75;;
64653;SDS011;51065;48.884;12.598;2024-01-30T09:12:18;19.23;;;9.07;;
64653;SDS011;51065;48.884;12.598;2024-01-30T09:14:44;19.25;;;9.35;;
64653;SDS011;51065;48.884;12.598;2024-01-30T09:17:10;19.80;;;9.88;;
64653;SDS011;51065;48.884;12.598;2024-01-30T09:19:35;18.65;;;8.68;;
64653;SDS011;51065;48.884;12.598;2024-01-30T09:22:01;18.65;;;9.13;;
64653;SDS011;51065;48.884;12.598;2024-01-30T09:24:27;19.88;;;10.57;;
64653;SDS011;51065;48.884;12.598;2024-01-30T09:26:53;19.33;;;9.45;;
64653;SDS011;51065;48.884;12.598;2024-01-30T09:29:18;20.17;;;9.40;;
64653;SDS011;51065;48.884;12.598;2024-01-30T09:31:47;23.05;;;10.93;;
64653;SDS011;51065;48.884;12.598;2024-01-30T09:34:13;23.75;;;10.80;;
64653;SDS011;51065;48.884;12.598;2024-01-30T09:36:39;20.70;;;11.30;;
64653;SDS011;51065;48.884;12.598;2024-01-30T09:39:04;20.30;;;10.52;;
64653;SDS011;51065;48.884;12.598;2024-01-30T09:41:37;20.05;;;9.88;;
64653;SDS011;51065;48.884;12.598;2024-01-30T09:44:11;20.27;;;9.50;;
64653;SDS011;51065;48.884;12.598;2024-01-30T09:46:38;22.10;;;10.48;;
64653;SDS011;51065;48.884;12.598;2024-01-30T09:49:04;23.85;;;13.18;;
64653;SDS011;51065;48.884;12.598;2024-01-30T09:51:32;21.35;;;10.82;;
64653;SDS011;51065;48.884;12.598;2024-01-30T09:53:59;25.10;;;13.85;;
64653;SDS011;51065;48.884;12.598;2024-01-30T09:56:25;26.95;;;14.48;;
64653;SDS011;51065;48.884;12.598;2024-01-30T09:58:50;20.05;;;10.48;;
64653;SDS011;51065;48.884;12.598;2024-01-30T10:01:16;19.10;;;9.68;;
64653;SDS011;51065;48.884;12.598;2024-01-30T10:03:44;18.98;;;9.07;;
64653;SDS011;51065;48.884;12.598;2024-01-30T10:06:10;18.48;;;9.43;;
64653;SDS011;51065;48.884;12.598;2024-01-30T10:08:36;20.80;;;10.18;;
64653;SDS011;51065;48.884;12.598;2024-01-30T10:11:02;22.67;;;10.38;;
64653;SDS011;51065;48.884;12.598;2024-01-30T10:13:28;19.92;;;9.90;;
64653;SDS011;51065;48.884;12.598;2024-01-30T10:15:54;19.30;;;9.30;;
64653;SDS011;51065;48.884;12.598;2024-01-30T10:18:22;19.95;;;11.38;;
64653;SDS011;51065;48.884;12.598;2024-01-30T10:20:47;22.40;;;11.00;;
64653;SDS011;51065;48.884;12.598;2024-01-30T10:23:13;18.48;;;9.80;;
64653;SDS011;51065;48.884;12.598;2024-01-30T10:25:39;22.55;;;12.35;;
64653;SDS011;51065;48.884;12.598;2024-01-30T10:28:05;20.85;;;11.07;;
64653;SDS011;51065;48.884;12.598;2024-01-30T10:30:30;22.45;;;11.88;;
64653;SDS011;51065;48.884;12.598;2024-01-30T10:32:56;22.67;;;10.93;;
64653;SDS011;51065;48.884;12.598;2024-01-30T10:35:22;22.95;;;11.55;;
64653;SDS011;51065;48.884;12.598;2024-01-30T10:37:47;20.65;;;10.50;;
64653;SDS011;51065;48.884;12.598;2024-01-30T10:40:14;21.63;;;11.35;;
64653;SDS011;51065;48.884;12.598;2024-01-30T10:42:43;21.48;;;10.95;;
64653;SDS011;51065;48.884;12.598;2024-01-30T10:45:10;19.38;;;10.43;;
64653;SDS011;51065;48.884;12.598;2024-01-30T10:47:44;20.77;;;10.82;;
64653;SDS011;51065;48.884;12.598;2024-01-30T10:50:14;20.88;;;10.20;;
64653;SDS011;51065;48.884;12.598;2024-01-30T10:52:41;21.88;;;11.23;;
64653;SDS011;51065;48.884;12.598;2024-01-30T10:55:09;20.35;;;10.48;;
64653;SDS011;51065;48.884;12.598;2024-01-30T10:57:35;21.35;;;10.00;;
64653;SDS011;51065;48.884;12.598;2024-01-30T11:00:02;22.10;;;12.73;;
64653;SDS011;51065;48.884;12.598;2024-01-30T11:02:30;24.33;;;14.02;;
64653;SDS011;51065;48.884;12.598;2024-01-30T11:04:58;21.90;;;10.30;;
64653;SDS011;51065;48.884;12.598;2024-01-30T11:07:25;20.13;;;9.98;;
64653;SDS011;51065;48.884;12.598;2024-01-30T11:12:25;20.95;;;10.73;;
64653;SDS011;51065;48.884;12.598;2024-01-30T11:15:04;20.42;;;10.32;;
64653;SDS011;51065;48.884;12.598;2024-01-30T11:20:09;19.70;;;9.98;;
64653;SDS011;51065;48.884;12.598;2024-01-30T11:22:36;17.77;;;9.27;;
64653;SDS011;51065;48.884;12.598;2024-01-30T11:25:02;19.08;;;9.05;;
64653;SDS011;51065;48.884;12.598;2024-01-30T11:27:28;21.27;;;11.18;;
64653;SDS011;51065;48.884;12.598;2024-01-30T11:30:00;18.20;;;9.40;;
64653;SDS011;51065;48.884;12.598;2024-01-30T11:32:27;19.48;;;8.80;;
64653;SDS011;51065;48.884;12.598;2024-01-30T11:34:53;23.30;;;10.07;;
64653;SDS011;51065;48.884;12.598;2024-01-30T11:37:20;21.52;;;10.88;;
64653;SDS011;51065;48.884;12.598;2024-01-30T11:39:50;19.20;;;9.40;;
64653;SDS011;51065;48.884;12.598;2024-01-30T11:42:17;18.77;;;9.65;;
64653;SDS011;51065;48.884;12.598;2024-01-30T11:44:47;20.52;;;10.18;;
64653;SDS011;51065;48.884;12.598;2024-01-30T11:47:14;19.95;;;9.88;;
64653;SDS011;51065;48.884;12.598;2024-01-30T11:49:40;20.50;;;10.60;;
64653;SDS011;51065;48.884;12.598;2024-01-30T11:52:05;19.60;;;9.57;;
64653;SDS011;51065;48.884;12.598;2024-01-30T11:54:31;19.05;;;10.00;;
64653;SDS011;51065;48.884;12.598;2024-01-30T11:56:57;18.52;;;9.75;;
64653;SDS011;51065;48.884;12.598;2024-01-30T11:59:23;17.67;;;8.95;;
64653;SDS011;51065;48.884;12.598;2024-01-30T12:01:51;20.02;;;9.45;;
64653;SDS011;51065;48.884;12.598;2024-01-30T12:04:17;19.10;;;10.07;;
64653;SDS011;51065;48.884;12.598;2024-01-30T12:06:43;21.45;;;10.02;;
64653;SDS011;51065;48.884;12.598;2024-01-30T12:09:09;17.67;;;9.25;;
64653;SDS011;51065;48.884;12.598;2024-01-30T12:11:46;18.60;;;10.13;;
64653;SDS011;51065;48.884;12.598;2024-01-30T12:14:12;19.58;;;10.48;;
64653;SDS011;51065;48.884;12.598;2024-01-30T12:16:39;19.35;;;8.80;;
64653;SDS011;51065;48.884;12.598;2024-01-30T12:19:06;19.27;;;9.00;;
64653;SDS011;51065;48.884;12.598;2024-01-30T12:21:32;19.50;;;9.27;;
64653;SDS011;51065;48.884;12.598;2024-01-30T12:23:59;17.92;;;9.00;;
64653;SDS011;51065;48.884;12.598;2024-01-30T12:26:25;17.10;;;9.00;;
64653;SDS011;51065;48.884;12.598;2024-01-30T12:28:53;17.02;;;8.80;;
64653;SDS011;51065;48.884;12.598;2024-01-30T12:31:27;17.13;;;9.02;;
64653;SDS011;51065;48.884;12.598;2024-01-30T12:33:53;18.60;;;9.02;;
64653;SDS011;51065;48.884;12.598;2024-01-30T12:36:20;19.98;;;10.20;;
64653;SDS011;51065;48.884;12.598;2024-01-30T12:38:47;16.70;;;9.05;;
64653;SDS011;51065;48.884;12.598;2024-01-30T12:41:12;19.80;;;10.07;;
64653;SDS011;51065;48.884;12.598;2024-01-30T12:43:38;19.92;;;9.07;;
64653;SDS011;51065;48.884;12.598;2024-01-30T12:46:04;17.02;;;8.90;;
64653;SDS011;51065;48.884;12.598;2024-01-30T12:48:30;16.95;;;8.77;;
64653;SDS011;51065;48.884;12.598;2024-01-30T12:50:56;16.55;;;8.73;;
64653;SDS011;51065;48.884;12.598;2024-01-30T12:53:22;17.98;;;8.60;;
64653;SDS011;51065;48.884;12.598;2024-01-30T12:55:48;16.92;;;8.55;;
64653;SDS011;51065;48.884;12.598;2024-01-30T12:58:15;17.25;;;9.38;;
64653;SDS011;51065;48.884;12.598;2024-01-30T13:00:41;18.30;;;9.30;;
64653;SDS011;51065;48.884;12.598;2024-01-30T13:03:08;19.23;;;9.73;;
64653;SDS011;51065;48.884;12.598;2024-01-30T13:05:34;17.67;;;8.77;;
64653;SDS011;51065;48.884;12.598;2024-01-30T13:08:00;16.40;;;7.80;;
64653;SDS011;51065;48.884;12.598;2024-01-30T13:10:26;17.77;;;9.23;;
64653;SDS011;51065;48.884;12.598;2024-01-30T13:12:52;18.00;;;9.48;;
64653;SDS011;51065;48.884;12.598;2024-01-30T13:15:18;18.08;;;9.35;;
64653;SDS011;51065;48.884;12.598;2024-01-30T13:17:44;17.38;;;9.07;;
64653;SDS011;51065;48.884;12.598;2024-01-30T13:20:12;19.55;;;9.10;;
64653;SDS011;51065;48.884;12.598;2024-01-30T13:22:41;17.40;;;9.10;;
64653;SDS011;51065;48.884;12.598;2024-01-30T13:25:08;19.58;;;8.90;;
64653;SDS011;51065;48.884;12.598;2024-01-30T13:27:34;17.88;;;8.40;;
64653;SDS011;51065;48.884;12.598;2024-01-30T13:30:00;16.83;;;8.57;;
64653;SDS011;51065;48.884;12.598;2024-01-30T13:32:25;16.23;;;8.57;;
64653;SDS011;51065;48.884;12.598;2024-01-30T13:34:51;19.80;;;9.48;;
64653;SDS011;51065;48.884;12.598;2024-01-30T13:37:17;19.65;;;10.23;;
64653;SDS011;51065;48.884;12.598;2024-01-30T13:39:43;19.48;;;9.68;;
64653;SDS011;51065;48.884;12.598;2024-01-30T13:42:09;17.70;;;8.88;;
64653;SDS011;51065;48.884;12.598;2024-01-30T13:44:35;18.48;;;9.43;;
64653;SDS011;51065;48.884;12.598;2024-01-30T13:47:01;20.35;;;10.68;;
64653;SDS011;51065;48.884;12.598;2024-01-30T13:49:27;18.77;;;8.65;;
64653;SDS011;51065;48.884;12.598;2024-01-30T13:51:52;18.40;;;9.07;;
64653;SDS011;51065;48.884;12.598;2024-01-30T13:54:18;19.38;;;8.93;;
64653;SDS011;51065;48.884;12.598;2024-01-30T13:56:43;18.35;;;9.25;;
64653;SDS011;51065;48.884;12.598;2024-01-30T13:59:09;18.63;;;9.65;;
64653;SDS011;51065;48.884;12.598;2024-01-30T14:01:35;17.23;;;9.05;;
64653;SDS011;51065;48.884;12.598;2024-01-30T14:04:00;18.63;;;9.15;;
64653;SDS011;51065;48.884;12.598;2024-01-30T14:06:26;19.17;;;9.10;;
64653;SDS011;51065;48.884;12.598;2024-01-30T14:08:51;21.30;;;9.77;;
64653;SDS011;51065;48.884;12.598;2024-01-30T14:11:17;19.48;;;9.48;;
64653;SDS011;51065;48.884;12.598;2024-01-30T14:13:43;17.58;;;8.77;;
64653;SDS011;51065;48.884;12.598;2024-01-30T14:16:09;21.20;;;9.25;;
64653;SDS011;51065;48.884;12.598;2024-01-30T14:18:35;19.10;;;9.32;;